sensor_id;sensor_type;location;lat;lon;timestamp;pressure;altitude;pressure_sealevel;temperature;humidity
75045;BME280;63614;56.026;35.960;2024-02-26T00:00:05;100070.91;;;-0.80;80.70
75045;BME280;63614;56.026;35.960;2024-02-26T00:02:36;100066.63;;;-0.80;79.62
75045;BME280;63614;56.026;35.960;2024-02-26T00:05:06;100067.63;;;-0.82;79.68
75045;BME280;63614;56.026;35.960;2024-02-26T00:07:32;100062.63;;;-0.84;79.63
75045;BME280;63614;56.026;35.960;2024-02-26T00:09:58;100063.34;;;-0.82;79.63
75045;BME280;63614;56.026;35.960;2024-02-26T00:12:24;100064.38;;;-0.84;79.39
75045;BME280;63614;56.026;35.960;2024-02-26T00:14:50;100062.53;;;-0.82;80.13
75045;BME280;63614;56.026;35.960;2024-02-26T00:17:18;100064.88;;;-0.79;79.99
75045;BME280;63614;56.026;35.960;2024-02-26T00:19:44;100068.88;;;-0.75;79.84
75045;BME280;63614;56.026;35.960;2024-02-26T00:22:10;100053.03;;;-0.80;79.92
75045;BME280;63614;56.026;35.960;2024-02-26T00:24:36;100059.78;;;-0.79;79.85
75045;BME280;63614;56.026;35.960;2024-02-26T00:27:02;100062.31;;;-0.79;79.18
75045;BME280;63614;56.026;35.960;2024-02-26T00:29:28;100054.91;;;-0.97;79.72
75045;BME280;63614;56.026;35.960;2024-02-26T00:31:54;100051.88;;;-0.89;79.49
75045;BME280;63614;56.026;35.960;2024-02-26T00:34:20;100064.47;;;-0.86;79.92
75045;BME280;63614;56.026;35.960;2024-02-26T00:36:46;100060.78;;;-0.82;79.40
75045;BME280;63614;56.026;35.960;2024-02-26T00:39:12;100052.41;;;-0.84;79.67
75045;BME280;63614;56.026;35.960;2024-02-26T00:41:41;100062.63;;;-0.84;79.46
75045;BME280;63614;56.026;35.960;2024-02-26T00:44:07;100052.97;;;-0.93;79.26
75045;BME280;63614;56.026;35.960;2024-02-26T00:46:33;100053.94;;;-0.81;79.86
75045;BME280;63614;56.026;35.960;2024-02-26T00:48:59;100051.50;;;-0.83;79.83
75045;BME280;63614;56.026;35.960;2024-02-26T00:51:26;100053.22;;;-0.83;79.92
75045;BME280;63614;56.026;35.960;2024-02-26T00:53:52;100050.56;;;-0.82;79.50
75045;BME280;63614;56.026;35.960;2024-02-26T00:56:17;100049.56;;;-0.79;79.82
75045;BME280;63614;56.026;35.960;2024-02-26T00:58:43;100042.28;;;-0.85;79.65
75045;BME280;63614;56.026;35.960;2024-02-26T01:01:09;100046.78;;;-0.89;80.35
75045;BME280;63614;56.026;35.960;2024-02-26T01:03:35;100046.47;;;-0.84;80.05
75045;BME280;63614;56.026;35.960;2024-02-26T01:06:01;100047.09;;;-0.81;80.23
75045;BME280;63614;56.026;35.960;2024-02-26T01:08:27;100045.53;;;-0.83;80.46
75045;BME280;63614;56.026;35.960;2024-02-26T01:10:53;100043.09;;;-0.85;80.65
75045;BME280;63614;56.026;35.960;2024-02-26T01:13:19;100044.13;;;-0.87;80.25
75045;BME280;63614;56.026;35.960;2024-02-26T01:15:44;100051.31;;;-0.80;80.43
75045;BME280;63614;56.026;35.960;2024-02-26T01:18:11;100050.06;;;-0.74;80.75
75045;BME280;63614;56.026;35.960;2024-02-26T01:20:37;100040.34;;;-0.82;79.92
75045;BME280;63614;56.026;35.960;2024-02-26T01:23:03;100042.28;;;-0.85;80.65
75045;BME280;63614;56.026;35.960;2024-02-26T01:25:29;100044.50;;;-0.94;80.83
75045;BME280;63614;56.026;35.960;2024-02-26T01:27:55;100039.31;;;-0.92;80.74
75045;BME280;63614;56.026;35.960;2024-02-26T01:30:21;100044.59;;;-0.95;81.59
75045;BME280;63614;56.026;35.960;2024-02-26T01:32:47;100035.13;;;-0.80;81.59
75045;BME280;63614;56.026;35.960;2024-02-26T01:35:13;100029.13;;;-0.79;81.18
75045;BME280;63614;56.026;35.960;2024-02-26T01:37:39;100039.44;;;-0.81;81.38
75045;BME280;63614;56.026;35.960;2024-02-26T01:40:06;100039.94;;;-0.76;81.53
75045;BME280;63614;56.026;35.960;2024-02-26T01:42:39;100020.56;;;-0.78;81.90
75045;BME280;63614;56.026;35.960;2024-02-26T01:45:05;100012.34;;;-0.83;81.59
75045;BME280;63614;56.026;35.960;2024-02-26T01:47:32;100027.19;;;-0.76;82.31
75045;BME280;63614;56.026;35.960;2024-02-26T01:49:58;100025.69;;;-0.65;81.66
75045;BME280;63614;56.026;35.960;2024-02-26T01:52:24;100023.81;;;-0.76;82.18
75045;BME280;63614;56.026;35.960;2024-02-26T01:54:50;100020.56;;;-0.78;82.20
75045;BME280;63614;56.026;35.960;2024-02-26T01:57:16;100018.72;;;-0.76;82.44
75045;BME280;63614;56.026;35.960;2024-02-26T01:59:42;100021.66;;;-0.82;83.27
75045;BME280;63614;56.026;35.960;2024-02-26T02:02:10;100016.03;;;-0.87;83.42
75045;BME280;63614;56.026;35.960;2024-02-26T02:04:37;100007.53;;;-0.88;83.54
75045;BME280;63614;56.026;35.960;2024-02-26T02:07:03;100011.31;;;-0.94;82.91
75045;BME280;63614;56.026;35.960;2024-02-26T02:09:30;100016.22;;;-0.90;83.70
75045;BME280;63614;56.026;35.960;2024-02-26T02:11:56;100009.69;;;-0.82;83.30
75045;BME280;63614;56.026;35.960;2024-02-26T02:14:24;100010.44;;;-0.80;83.89
75045;BME280;63614;56.026;35.960;2024-02-26T02:16:50;100006.31;;;-0.95;83.39
75045;BME280;63614;56.026;35.960;2024-02-26T02:19:16;100001.41;;;-0.85;83.23
75045;BME280;63614;56.026;35.960;2024-02-26T02:21:42;99996.00;;;-0.94;83.35
75045;BME280;63614;56.026;35.960;2024-02-26T02:24:08;100003.84;;;-0.97;83.90
75045;BME280;63614;56.026;35.960;2024-02-26T02:26:34;100006.72;;;-0.88;83.70
75045;BME280;63614;56.026;35.960;2024-02-26T02:29:00;100009.28;;;-0.88;83.43
75045;BME280;63614;56.026;35.960;2024-02-26T02:31:26;100012.31;;;-0.96;83.51
75045;BME280;63614;56.026;35.960;2024-02-26T02:33:52;99994.25;;;-0.93;83.45
75045;BME280;63614;56.026;35.960;2024-02-26T02:36:18;99999.78;;;-0.86;83.74
75045;BME280;63614;56.026;35.960;2024-02-26T02:38:51;100008.03;;;-0.96;83.48
75045;BME280;63614;56.026;35.960;2024-02-26T02:41:17;100003.34;;;-0.89;83.07
75045;BME280;63614;56.026;35.960;2024-02-26T02:43:44;100000.38;;;-0.96;83.07
75045;BME280;63614;56.026;35.960;2024-02-26T02:46:10;100004.56;;;-0.95;82.68
75045;BME280;63614;56.026;35.960;2024-02-26T02:48:38;99998.88;;;-0.85;83.22
75045;BME280;63614;56.026;35.960;2024-02-26T02:51:04;100002.84;;;-0.94;82.02
75045;BME280;63614;56.026;35.960;2024-02-26T02:53:30;99982.50;;;-0.96;82.52
75045;BME280;63614;56.026;35.960;2024-02-26T02:55:56;99983.22;;;-0.94;82.41
75045;BME280;63614;56.026;35.960;2024-02-26T02:58:22;99995.56;;;-1.00;81.79
75045;BME280;63614;56.026;35.960;2024-02-26T03:00:48;100001.78;;;-1.04;82.75
75045;BME280;63614;56.026;35.960;2024-02-26T03:03:13;99984.69;;;-1.17;82.49
75045;BME280;63614;56.026;35.960;2024-02-26T03:05:39;100003.72;;;-1.08;82.02
75045;BME280;63614;56.026;35.960;2024-02-26T03:08:05;99981.97;;;-1.01;82.50
75045;BME280;63614;56.026;35.960;2024-02-26T03:10:31;99983.22;;;-0.94;82.10
75045;BME280;63614;56.026;35.960;2024-02-26T03:12:57;99984.97;;;-0.94;82.08
75045;BME280;63614;56.026;35.960;2024-02-26T03:15:23;99988.03;;;-0.89;82.04
75045;BME280;63614;56.026;35.960;2024-02-26T03:17:49;99968.41;;;-0.88;81.50
75045;BME280;63614;56.026;35.960;2024-02-26T03:20:14;99993.94;;;-0.88;81.00
75045;BME280;63614;56.026;35.960;2024-02-26T03:22:40;99977.31;;;-0.81;80.84
75045;BME280;63614;56.026;35.960;2024-02-26T03:25:07;99973.00;;;-0.94;81.37
75045;BME280;63614;56.026;35.960;2024-02-26T03:27:33;99983.28;;;-1.08;80.83
75045;BME280;63614;56.026;35.960;2024-02-26T03:29:58;99976.56;;;-0.96;81.48
75045;BME280;63614;56.026;35.960;2024-02-26T03:32:24;99972.69;;;-1.02;81.55
75045;BME280;63614;56.026;35.960;2024-02-26T03:34:50;99975.94;;;-1.00;81.75
75045;BME280;63614;56.026;35.960;2024-02-26T03:37:19;99976.78;;;-0.86;81.84
75045;BME280;63614;56.026;35.960;2024-02-26T03:39:45;99981.47;;;-0.93;81.69
75045;BME280;63614;56.026;35.960;2024-02-26T03:42:11;99981.19;;;-0.88;81.76
75045;BME280;63614;56.026;35.960;2024-02-26T03:44:37;99974.34;;;-0.88;80.60
75045;BME280;63614;56.026;35.960;2024-02-26T03:47:03;99975.66;;;-0.95;81.36
75045;BME280;63614;56.026;35.960;2024-02-26T03:49:29;99976.88;;;-0.88;80.83
75045;BME280;63614;56.026;35.960;2024-02-26T03:51:55;99984.19;;;-1.09;81.32
75045;BME280;63614;56.026;35.960;2024-02-26T03:54:21;99975.63;;;-1.08;80.90
75045;BME280;63614;56.026;35.960;2024-02-26T03:56:47;99978.41;;;-0.98;80.77
75045;BME280;63614;56.026;35.960;2024-02-26T03:59:13;99972.75;;;-1.16;80.21
75045;BME280;63614;56.026;35.960;2024-02-26T04:01:39;99976.06;;;-1.01;80.33
75045;BME280;63614;56.026;35.960;2024-02-26T04:04:04;99977.59;;;-0.99;80.37
75045;BME280;63614;56.026;35.960;2024-02-26T04:06:30;99970.47;;;-0.94;79.83
75045;BME280;63614;56.026;35.960;2024-02-26T04:08:56;99969.84;;;-0.97;80.04
75045;BME280;63614;56.026;35.960;2024-02-26T04:11:22;99963.06;;;-1.11;79.15
75045;BME280;63614;56.026;35.960;2024-02-26T04:13:48;99956.72;;;-1.05;79.62
75045;BME280;63614;56.026;35.960;2024-02-26T04:16:18;99970.94;;;-1.01;80.03
75045;BME280;63614;56.026;35.960;2024-02-26T04:18:44;99968.59;;;-1.04;79.13
75045;BME280;63614;56.026;35.960;2024-02-26T04:21:09;99970.94;;;-1.01;79.76
75045;BME280;63614;56.026;35.960;2024-02-26T04:23:35;99968.38;;;-1.01;79.56
75045;BME280;63614;56.026;35.960;2024-02-26T04:26:01;99978.56;;;-1.14;80.07
75045;BME280;63614;56.026;35.960;2024-02-26T04:28:27;99974.41;;;-1.02;79.39
75045;BME280;63614;56.026;35.960;2024-02-26T04:30:55;99975.91;;;-1.13;79.04
75045;BME280;63614;56.026;35.960;2024-02-26T04:33:22;99972.97;;;-1.06;79.60
75045;BME280;63614;56.026;35.960;2024-02-26T04:35:47;99980.25;;;-1.00;79.43
75045;BME280;63614;56.026;35.960;2024-02-26T04:38:13;99980.03;;;-1.10;80.00
75045;BME280;63614;56.026;35.960;2024-02-26T04:40:39;99972.03;;;-1.05;79.16
75045;BME280;63614;56.026;35.960;2024-02-26T04:43:05;99988.59;;;-1.11;79.26
75045;BME280;63614;56.026;35.960;2024-02-26T04:45:31;99967.03;;;-1.07;78.31
75045;BME280;63614;56.026;35.960;2024-02-26T04:47:56;99964.66;;;-1.23;78.70
75045;BME280;63614;56.026;35.960;2024-02-26T04:50:22;99964.03;;;-1.26;78.64
75045;BME280;63614;56.026;35.960;2024-02-26T04:52:48;99976.25;;;-1.04;79.02
75045;BME280;63614;56.026;35.960;2024-02-26T04:55:15;99972.59;;;-1.00;78.54
75045;BME280;63614;56.026;35.960;2024-02-26T04:57:40;99967.16;;;-1.08;77.65
75045;BME280;63614;56.026;35.960;2024-02-26T05:00:07;99962.25;;;-1.12;77.98
75045;BME280;63614;56.026;35.960;2024-02-26T05:02:33;99969.34;;;-1.17;77.59
75045;BME280;63614;56.026;35.960;2024-02-26T05:05:05;99972.28;;;-1.08;78.26
75045;BME280;63614;56.026;35.960;2024-02-26T05:07:31;99970.75;;;-0.98;77.93
75045;BME280;63614;56.026;35.960;2024-02-26T05:09:57;99958.66;;;-1.09;77.48
75045;BME280;63614;56.026;35.960;2024-02-26T05:12:23;99967.75;;;-1.18;77.75
75045;BME280;63614;56.026;35.960;2024-02-26T05:14:49;99967.44;;;-1.13;78.37
75045;BME280;63614;56.026;35.960;2024-02-26T05:17:15;99967.78;;;-1.05;78.40
75045;BME280;63614;56.026;35.960;2024-02-26T05:19:40;99968.50;;;-1.03;77.76
75045;BME280;63614;56.026;35.960;2024-02-26T05:22:06;99970.72;;;-1.11;77.22
75045;BME280;63614;56.026;35.960;2024-02-26T05:24:32;99965.22;;;-1.05;76.03
75045;BME280;63614;56.026;35.960;2024-02-26T05:26:59;99977.75;;;-1.15;76.66
75045;BME280;63614;56.026;35.960;2024-02-26T05:29:25;99976.34;;;-1.06;76.90
75045;BME280;63614;56.026;35.960;2024-02-26T05:31:51;99986.94;;;-1.12;76.74
75045;BME280;63614;56.026;35.960;2024-02-26T05:34:18;99969.50;;;-1.05;76.67
75045;BME280;63614;56.026;35.960;2024-02-26T05:36:44;99964.81;;;-1.12;75.89
75045;BME280;63614;56.026;35.960;2024-02-26T05:39:10;99973.97;;;-1.09;76.60
75045;BME280;63614;56.026;35.960;2024-02-26T05:41:37;99970.34;;;-1.05;76.80
75045;BME280;63614;56.026;35.960;2024-02-26T05:44:03;99968.03;;;-1.22;76.55
75045;BME280;63614;56.026;35.960;2024-02-26T05:46:29;99962.34;;;-1.13;76.19
75045;BME280;63614;56.026;35.960;2024-02-26T05:48:55;99974.19;;;-1.12;76.12
75045;BME280;63614;56.026;35.960;2024-02-26T05:51:21;99965.13;;;-1.03;75.36
75045;BME280;63614;56.026;35.960;2024-02-26T05:53:47;99968.81;;;-0.95;75.36
75045;BME280;63614;56.026;35.960;2024-02-26T05:56:21;99959.50;;;-1.08;75.34
75045;BME280;63614;56.026;35.960;2024-02-26T05:58:47;99957.63;;;-1.19;75.07
75045;BME280;63614;56.026;35.960;2024-02-26T06:01:13;99955.72;;;-1.03;75.61
75045;BME280;63614;56.026;35.960;2024-02-26T06:03:40;99957.47;;;-1.03;75.09
75045;BME280;63614;56.026;35.960;2024-02-26T06:06:06;99966.03;;;-1.04;74.68
75045;BME280;63614;56.026;35.960;2024-02-26T06:08:32;99967.56;;;-1.15;75.29
75045;BME280;63614;56.026;35.960;2024-02-26T06:10:58;99966.22;;;-1.07;74.69
75045;BME280;63614;56.026;35.960;2024-02-26T06:13:24;99962.66;;;-1.05;74.90
75045;BME280;63614;56.026;35.960;2024-02-26T06:15:50;99957.56;;;-1.05;74.85
75045;BME280;63614;56.026;35.960;2024-02-26T06:18:15;99953.56;;;-1.09;75.04
75045;BME280;63614;56.026;35.960;2024-02-26T06:20:41;99951.22;;;-0.99;74.84
75045;BME280;63614;56.026;35.960;2024-02-26T06:23:07;99953.25;;;-1.04;75.12
75045;BME280;63614;56.026;35.960;2024-02-26T06:25:33;99944.69;;;-1.03;75.11
75045;BME280;63614;56.026;35.960;2024-02-26T06:27:58;99961.75;;;-0.91;75.00
75045;BME280;63614;56.026;35.960;2024-02-26T06:30:24;99957.69;;;-0.94;74.22
75045;BME280;63614;56.026;35.960;2024-02-26T06:32:50;99938.16;;;-1.07;74.23
75045;BME280;63614;56.026;35.960;2024-02-26T06:35:16;99938.16;;;-1.07;74.26
75045;BME280;63614;56.026;35.960;2024-02-26T06:37:41;99952.66;;;-1.08;74.87
75045;BME280;63614;56.026;35.960;2024-02-26T06:40:08;99945.19;;;-1.11;74.84
75045;BME280;63614;56.026;35.960;2024-02-26T06:42:34;99944.41;;;-0.99;75.07
75045;BME280;63614;56.026;35.960;2024-02-26T06:45:00;99953.50;;;-0.95;75.06
75045;BME280;63614;56.026;35.960;2024-02-26T06:47:26;99966.38;;;-0.83;75.14
75045;BME280;63614;56.026;35.960;2024-02-26T06:49:52;99963.09;;;-0.85;74.70
75045;BME280;63614;56.026;35.960;2024-02-26T06:52:18;99955.06;;;-0.79;74.42
75045;BME280;63614;56.026;35.960;2024-02-26T06:54:43;99961.25;;;-0.83;75.24
75045;BME280;63614;56.026;35.960;2024-02-26T06:57:10;99941.44;;;-0.93;74.81
75045;BME280;63614;56.026;35.960;2024-02-26T06:59:36;99955.97;;;-0.80;75.17
75045;BME280;63614;56.026;35.960;2024-02-26T07:02:02;99947.88;;;-0.87;74.33
75045;BME280;63614;56.026;35.960;2024-02-26T07:04:28;99955.53;;;-1.00;74.55
75045;BME280;63614;56.026;35.960;2024-02-26T07:06:54;99955.94;;;-0.93;74.67
75045;BME280;63614;56.026;35.960;2024-02-26T07:09:19;99949.94;;;-0.92;74.54
75045;BME280;63614;56.026;35.960;2024-02-26T07:11:45;99936.56;;;-0.83;74.34
75045;BME280;63614;56.026;35.960;2024-02-26T07:14:12;99936.88;;;-0.87;74.47
75045;BME280;63614;56.026;35.960;2024-02-26T07:16:38;99937.38;;;-0.82;73.59
75045;BME280;63614;56.026;35.960;2024-02-26T07:19:04;99945.13;;;-0.84;73.81
75045;BME280;63614;56.026;35.960;2024-02-26T07:21:30;99946.59;;;-0.80;73.37
75045;BME280;63614;56.026;35.960;2024-02-26T07:23:56;99946.13;;;-0.86;73.28
75045;BME280;63614;56.026;35.960;2024-02-26T07:26:22;99951.63;;;-0.93;73.78
75045;BME280;63614;56.026;35.960;2024-02-26T07:28:50;99960.38;;;-0.69;73.99
75045;BME280;63614;56.026;35.960;2024-02-26T07:31:17;99941.97;;;-0.62;73.46
75045;BME280;63614;56.026;35.960;2024-02-26T07:33:43;99960.06;;;-0.52;72.71
75045;BME280;63614;56.026;35.960;2024-02-26T07:36:09;99956.19;;;-0.58;73.18
75045;BME280;63614;56.026;35.960;2024-02-26T07:38:35;99964.03;;;-0.61;73.11
75045;BME280;63614;56.026;35.960;2024-02-26T07:41:02;99961.81;;;-0.65;73.01
75045;BME280;63614;56.026;35.960;2024-02-26T07:43:28;99952.81;;;-0.58;73.12
75045;BME280;63614;56.026;35.960;2024-02-26T07:45:54;99945.84;;;-0.56;72.86
75045;BME280;63614;56.026;35.960;2024-02-26T07:48:20;99957.91;;;-0.58;73.38
75045;BME280;63614;56.026;35.960;2024-02-26T07:50:46;99958.31;;;-0.51;73.25
75045;BME280;63614;56.026;35.960;2024-02-26T07:53:13;99945.34;;;-0.48;72.25
75045;BME280;63614;56.026;35.960;2024-02-26T07:55:39;99964.38;;;-0.40;72.31
75045;BME280;63614;56.026;35.960;2024-02-26T07:58:04;99957.00;;;-0.31;73.55
75045;BME280;63614;56.026;35.960;2024-02-26T08:00:30;99962.41;;;-0.23;72.75
75045;BME280;63614;56.026;35.960;2024-02-26T08:02:56;99950.66;;;-0.39;72.11
75045;BME280;63614;56.026;35.960;2024-02-26T08:05:22;99958.84;;;-0.21;72.32
75045;BME280;63614;56.026;35.960;2024-02-26T08:07:48;99946.88;;;-0.20;71.39
75045;BME280;63614;56.026;35.960;2024-02-26T08:10:14;99948.41;;;-0.30;71.80
75045;BME280;63614;56.026;35.960;2024-02-26T08:12:40;99958.00;;;-0.21;70.89
75045;BME280;63614;56.026;35.960;2024-02-26T08:15:07;99950.75;;;-0.02;72.09
75045;BME280;63614;56.026;35.960;2024-02-26T08:17:33;99954.09;;;-0.01;71.39
75045;BME280;63614;56.026;35.960;2024-02-26T08:19:59;99943.13;;;0.10;70.84
75045;BME280;63614;56.026;35.960;2024-02-26T08:22:26;99939.31;;;0.15;70.16
75045;BME280;63614;56.026;35.960;2024-02-26T08:24:51;99945.25;;;0.16;70.39
75045;BME280;63614;56.026;35.960;2024-02-26T08:27:17;99928.19;;;0.16;70.56
75045;BME280;63614;56.026;35.960;2024-02-26T08:29:43;99940.38;;;0.13;70.19
75045;BME280;63614;56.026;35.960;2024-02-26T08:32:09;99938.91;;;0.22;70.16
75045;BME280;63614;56.026;35.960;2024-02-26T08:34:34;99949.31;;;0.31;70.47
75045;BME280;63614;56.026;35.960;2024-02-26T08:37:00;99941.13;;;0.26;71.37
75045;BME280;63614;56.026;35.960;2024-02-26T08:39:26;99944.50;;;0.51;70.25
75045;BME280;63614;56.026;35.960;2024-02-26T08:41:52;99948.00;;;0.50;70.53
75045;BME280;63614;56.026;35.960;2024-02-26T08:44:18;99949.94;;;0.59;70.36
75045;BME280;63614;56.026;35.960;2024-02-26T08:46:44;99948.06;;;0.61;69.90
75045;BME280;63614;56.026;35.960;2024-02-26T08:49:11;99949.94;;;0.59;70.17
75045;BME280;63614;56.026;35.960;2024-02-26T08:51:43;99944.22;;;0.67;69.54
75045;BME280;63614;56.026;35.960;2024-02-26T08:54:10;99943.50;;;0.53;69.77
75045;BME280;63614;56.026;35.960;2024-02-26T08:56:36;99944.22;;;0.67;69.52
75045;BME280;63614;56.026;35.960;2024-02-26T08:59:03;99942.00;;;0.62;70.05
75045;BME280;63614;56.026;35.960;2024-02-26T09:01:31;99947.28;;;0.96;69.26
75045;BME280;63614;56.026;35.960;2024-02-26T09:03:58;99953.28;;;0.84;69.07
75045;BME280;63614;56.026;35.960;2024-02-26T09:06:24;99947.19;;;0.74;69.71
75045;BME280;63614;56.026;35.960;2024-02-26T09:08:50;99946.72;;;0.80;69.82
75045;BME280;63614;56.026;35.960;2024-02-26T09:11:16;99950.81;;;0.82;69.89
75045;BME280;63614;56.026;35.960;2024-02-26T09:13:42;99947.56;;;0.80;69.76
75045;BME280;63614;56.026;35.960;2024-02-26T09:16:08;99952.84;;;0.90;69.89
75045;BME280;63614;56.026;35.960;2024-02-26T09:18:33;99929.91;;;0.88;69.92
75045;BME280;63614;56.026;35.960;2024-02-26T09:20:59;99939.88;;;0.80;70.05
75045;BME280;63614;56.026;35.960;2024-02-26T09:23:25;99937.09;;;0.83;70.40
75045;BME280;63614;56.026;35.960;2024-02-26T09:25:51;99937.00;;;0.85;69.61
75045;BME280;63614;56.026;35.960;2024-02-26T09:28:16;99936.19;;;0.60;69.60
75045;BME280;63614;56.026;35.960;2024-02-26T09:30:46;99932.84;;;0.71;70.11
75045;BME280;63614;56.026;35.960;2024-02-26T09:33:13;99937.69;;;0.87;69.87
75045;BME280;63614;56.026;35.960;2024-02-26T09:35:39;99932.00;;;0.95;69.97
75045;BME280;63614;56.026;35.960;2024-02-26T09:38:05;99935.19;;;0.74;70.81
75045;BME280;63614;56.026;35.960;2024-02-26T09:40:31;99930.19;;;0.72;70.47
75045;BME280;63614;56.026;35.960;2024-02-26T09:43:00;99943.34;;;0.79;69.95
75045;BME280;63614;56.026;35.960;2024-02-26T09:45:28;99934.75;;;0.80;69.91
75045;BME280;63614;56.026;35.960;2024-02-26T09:47:55;99939.69;;;0.95;70.75
75045;BME280;63614;56.026;35.960;2024-02-26T09:50:22;99939.16;;;1.02;70.10
75045;BME280;63614;56.026;35.960;2024-02-26T09:52:51;99943.06;;;0.95;70.43
75045;BME280;63614;56.026;35.960;2024-02-26T09:55:19;99949.84;;;0.96;70.60
75045;BME280;63614;56.026;35.960;2024-02-26T09:57:46;99941.41;;;0.94;69.83
75045;BME280;63614;56.026;35.960;2024-02-26T10:00:17;99937.81;;;0.85;69.34
75045;BME280;63614;56.026;35.960;2024-02-26T10:02:46;99941.22;;;1.08;70.17
75045;BME280;63614;56.026;35.960;2024-02-26T10:05:17;99932.88;;;1.18;69.51
75045;BME280;63614;56.026;35.960;2024-02-26T10:07:46;99934.38;;;1.09;69.09
75045;BME280;63614;56.026;35.960;2024-02-26T10:10:17;99928.13;;;0.89;69.33
75045;BME280;63614;56.026;35.960;2024-02-26T10:12:43;99928.16;;;1.00;69.90
75045;BME280;63614;56.026;35.960;2024-02-26T10:15:09;99936.59;;;1.02;69.60
75045;BME280;63614;56.026;35.960;2024-02-26T10:17:35;99932.50;;;1.00;69.76
75045;BME280;63614;56.026;35.960;2024-02-26T10:20:20;99930.66;;;1.13;70.28
75045;BME280;63614;56.026;35.960;2024-02-26T10:22:50;99918.16;;;0.97;69.27
75045;BME280;63614;56.026;35.960;2024-02-26T10:25:17;99914.56;;;1.11;68.93
75045;BME280;63614;56.026;35.960;2024-02-26T10:27:45;99896.19;;;1.06;69.60
75045;BME280;63614;56.026;35.960;2024-02-26T10:30:21;99912.81;;;1.00;69.75
75045;BME280;63614;56.026;35.960;2024-02-26T10:32:51;99916.69;;;1.17;69.28
75045;BME280;63614;56.026;35.960;2024-02-26T10:35:18;99922.94;;;1.02;69.77
75045;BME280;63614;56.026;35.960;2024-02-26T10:37:44;99924.03;;;1.11;69.53
75045;BME280;63614;56.026;35.960;2024-02-26T10:40:18;99923.13;;;1.34;68.81
75045;BME280;63614;56.026;35.960;2024-02-26T10:42:44;99914.38;;;1.25;69.34
75045;BME280;63614;56.026;35.960;2024-02-26T10:45:13;99914.03;;;1.41;68.65
75045;BME280;63614;56.026;35.960;2024-02-26T10:47:40;99914.84;;;1.42;68.54
75045;BME280;63614;56.026;35.960;2024-02-26T10:50:08;99897.13;;;1.27;68.97
75045;BME280;63614;56.026;35.960;2024-02-26T10:52:35;99894.72;;;1.49;68.74
75045;BME280;63614;56.026;35.960;2024-02-26T10:55:03;99896.31;;;1.50;69.08
75045;BME280;63614;56.026;35.960;2024-02-26T10:57:40;99891.31;;;1.37;68.98
75045;BME280;63614;56.026;35.960;2024-02-26T11:00:08;99885.50;;;1.35;68.29
75045;BME280;63614;56.026;35.960;2024-02-26T11:02:55;99878.50;;;1.37;68.10
75045;BME280;63614;56.026;35.960;2024-02-26T11:05:25;99890.72;;;1.22;69.30
75045;BME280;63614;56.026;35.960;2024-02-26T11:07:52;99881.06;;;1.25;68.39
75045;BME280;63614;56.026;35.960;2024-02-26T11:10:18;99878.16;;;1.19;69.23
75045;BME280;63614;56.026;35.960;2024-02-26T11:12:45;99877.91;;;1.22;68.94
75045;BME280;63614;56.026;35.960;2024-02-26T11:15:11;99873.13;;;1.17;68.89
75045;BME280;63614;56.026;35.960;2024-02-26T11:17:38;99875.34;;;1.33;69.22
75045;BME280;63614;56.026;35.960;2024-02-26T11:20:05;99862.19;;;1.26;69.11
75045;BME280;63614;56.026;35.960;2024-02-26T11:22:35;99877.69;;;1.14;68.93
75045;BME280;63614;56.026;35.960;2024-02-26T11:25:02;99871.88;;;1.23;69.73
75045;BME280;63614;56.026;35.960;2024-02-26T11:27:39;99867.78;;;1.32;68.56
75045;BME280;63614;56.026;35.960;2024-02-26T11:30:09;99869.66;;;1.30;68.72
75045;BME280;63614;56.026;35.960;2024-02-26T11:32:37;99877.94;;;1.33;68.46
75045;BME280;63614;56.026;35.960;2024-02-26T11:35:05;99859.19;;;1.33;68.33
75045;BME280;63614;56.026;35.960;2024-02-26T11:37:31;99874.09;;;1.50;68.02
75045;BME280;63614;56.026;35.960;2024-02-26T11:39:59;99861.38;;;1.26;67.85
75045;BME280;63614;56.026;35.960;2024-02-26T11:42:25;99870.56;;;1.40;67.98
75045;BME280;63614;56.026;35.960;2024-02-26T11:44:51;99873.59;;;1.45;68.00
75045;BME280;63614;56.026;35.960;2024-02-26T11:47:22;99867.91;;;1.41;67.45
75045;BME280;63614;56.026;35.960;2024-02-26T11:49:49;99870.47;;;1.53;67.37
75045;BME280;63614;56.026;35.960;2024-02-26T11:52:15;99864.75;;;1.38;68.34
75045;BME280;63614;56.026;35.960;2024-02-26T11:54:52;99858.47;;;1.31;67.64
75045;BME280;63614;56.026;35.960;2024-02-26T11:57:30;99854.16;;;1.31;67.64
75045;BME280;63614;56.026;35.960;2024-02-26T12:02:52;99863.13;;;1.37;67.22
75045;BME280;63614;56.026;35.960;2024-02-26T12:05:32;99853.69;;;1.26;67.26
75045;BME280;63614;56.026;35.960;2024-02-26T12:08:03;99862.66;;;1.20;67.63
75045;BME280;63614;56.026;35.960;2024-02-26T12:10:33;99859.41;;;1.30;67.61
75045;BME280;63614;56.026;35.960;2024-02-26T12:13:14;99857.19;;;1.25;68.09
75045;BME280;63614;56.026;35.960;2024-02-26T12:15:44;99865.91;;;1.22;67.65
75045;BME280;63614;56.026;35.960;2024-02-26T12:18:20;99862.19;;;1.15;68.10
75045;BME280;63614;56.026;35.960;2024-02-26T12:20:58;99847.84;;;1.24;68.77
75045;BME280;63614;56.026;35.960;2024-02-26T12:23:25;99864.19;;;1.23;69.28
75045;BME280;63614;56.026;35.960;2024-02-26T12:25:51;99863.34;;;1.34;69.97
75045;BME280;63614;56.026;35.960;2024-02-26T12:28:18;99859.97;;;1.22;69.33
75045;BME280;63614;56.026;35.960;2024-02-26T12:30:44;99860.44;;;1.27;69.79
75045;BME280;63614;56.026;35.960;2024-02-26T12:33:10;99855.78;;;1.32;69.61
75045;BME280;63614;56.026;35.960;2024-02-26T12:35:36;99859.41;;;1.30;69.02
75045;BME280;63614;56.026;35.960;2024-02-26T12:38:03;99865.56;;;1.27;69.66
75045;BME280;63614;56.026;35.960;2024-02-26T12:40:30;99870.00;;;1.25;68.95
75045;BME280;63614;56.026;35.960;2024-02-26T12:45:42;99860.09;;;1.32;69.20
75045;BME280;63614;56.026;35.960;2024-02-26T12:48:12;99869.88;;;1.26;70.03
75045;BME280;63614;56.026;35.960;2024-02-26T12:50:38;99876.50;;;1.40;69.36
75045;BME280;63614;56.026;35.960;2024-02-26T12:53:05;99872.09;;;1.42;69.00